createdAt,value
2022-12-18T00:01:07.360Z,9.18
2022-12-18T00:03:34.980Z,11.52
2022-12-18T00:06:02.299Z,11.95
2022-12-18T00:08:29.424Z,12.13
2022-12-18T00:10:59.723Z,12.73
2022-12-18T00:13:28.465Z,14.52
2022-12-18T00:15:56.619Z,17.42
2022-12-18T00:18:23.507Z,21.10
2022-12-18T00:20:50.262Z,22.75
2022-12-18T00:23:17.006Z,18.02
2022-12-18T00:25:43.740Z,20.48
2022-12-18T00:28:10.505Z,19.77
2022-12-18T00:30:37.220Z,26.25
2022-12-18T00:33:03.957Z,28.73
2022-12-18T00:35:30.839Z,24.67
2022-12-18T00:37:57.612Z,28.73
2022-12-18T00:40:24.243Z,22.17
2022-12-18T00:42:57.004Z,16.92
2022-12-18T00:45:31.820Z,17.58
2022-12-18T00:47:58.921Z,19.15
2022-12-18T00:50:26.117Z,16.52
2022-12-18T00:52:53.216Z,15.67
2022-12-18T00:55:20.241Z,15.93
2022-12-18T00:57:46.845Z,14.23
2022-12-18T01:00:16.223Z,10.43
2022-12-18T01:02:43.442Z,12.63
2022-12-18T01:05:12.360Z,9.65
2022-12-18T01:07:39.564Z,11.55
2022-12-18T01:10:07.936Z,9.65
2022-12-18T01:12:34.545Z,10.67
2022-12-18T01:15:02.702Z,8.67
2022-12-18T01:17:29.549Z,12.93
2022-12-18T01:19:56.270Z,13.27
2022-12-18T01:22:23.098Z,13.03
2022-12-18T01:24:49.991Z,6.80
2022-12-18T01:27:16.730Z,6.07
2022-12-18T01:29:43.727Z,8.97
2022-12-18T01:32:10.549Z,8.83
2022-12-18T01:34:38.224Z,8.67
2022-12-18T01:37:06.154Z,8.27
2022-12-18T01:39:33.620Z,8.70
2022-12-18T01:42:03.936Z,9.17
2022-12-18T01:45:03.398Z,5.90
2022-12-18T01:47:39.137Z,5.18
2022-12-18T01:50:14.236Z,6.97
2022-12-18T01:52:47.857Z,8.67
2022-12-18T01:55:17.611Z,7.80
2022-12-18T01:57:44.722Z,8.13
2022-12-18T02:00:18.320Z,7.77
2022-12-18T02:02:46.664Z,5.50
2022-12-18T02:05:20.577Z,9.90
2022-12-18T02:07:55.461Z,4.23
2022-12-18T02:11:18.515Z,9.90
2022-12-18T02:13:51.784Z,9.50
2022-12-18T02:16:35.953Z,8.17
2022-12-18T02:19:21.964Z,10.20
2022-12-18T02:21:58.766Z,7.07
2022-12-18T02:24:43.129Z,6.77
2022-12-18T02:27:11.838Z,6.30
2022-12-18T02:29:45.119Z,5.53
2022-12-18T02:32:17.191Z,6.67
2022-12-18T02:34:45.523Z,8.93
2022-12-18T02:38:12.185Z,6.03
2022-12-18T02:45:22.663Z,8.27
2022-12-18T02:48:49.073Z,11.63
2022-12-18T02:55:32.731Z,9.63
2022-12-18T02:58:25.435Z,9.13
2022-12-18T03:01:54.871Z,6.30
2022-12-18T03:08:58.652Z,11.55
2022-12-18T03:11:47.469Z,10.93
2022-12-18T03:14:17.938Z,9.03
2022-12-18T03:16:46.606Z,9.40
2022-12-18T03:19:18.193Z,9.07
2022-12-18T03:21:48.440Z,9.10
2022-12-18T03:24:18.124Z,8.40
2022-12-18T03:26:47.601Z,7.43
2022-12-18T03:29:19.681Z,9.23
2022-12-18T03:31:53.069Z,8.60
2022-12-18T03:34:26.062Z,7.87
2022-12-18T03:39:20.987Z,11.33
2022-12-18T03:42:06.636Z,6.63
2022-12-18T03:44:41.681Z,8.50
2022-12-18T03:47:22.063Z,11.67
2022-12-18T03:49:54.376Z,10.50
2022-12-18T03:52:46.639Z,9.25
2022-12-18T03:55:13.901Z,9.27
2022-12-18T03:57:42.764Z,13.37
2022-12-18T04:00:13.899Z,7.43
2022-12-18T04:02:45.863Z,11.40
2022-12-18T04:05:14.752Z,8.27
2022-12-18T04:07:42.267Z,14.03
2022-12-18T04:10:10.839Z,15.13
2022-12-18T04:12:38.719Z,11.83
2022-12-18T04:15:06.906Z,11.23
2022-12-18T04:17:33.621Z,16.23
2022-12-18T04:20:00.349Z,11.83
2022-12-18T04:22:28.191Z,15.00
2022-12-18T04:24:54.939Z,11.00
2022-12-18T04:27:22.190Z,15.83
2022-12-18T04:29:48.922Z,15.63
2022-12-18T04:32:15.758Z,10.67
2022-12-18T04:34:42.397Z,8.30
2022-12-18T04:37:09.341Z,18.20
2022-12-18T04:39:36.841Z,18.63
2022-12-18T04:42:03.843Z,14.20
2022-12-18T04:44:30.496Z,17.70
2022-12-18T04:46:57.148Z,21.57
2022-12-18T04:49:24.147Z,19.33
2022-12-18T04:51:50.833Z,16.17
2022-12-18T04:54:17.579Z,13.27
2022-12-18T04:56:44.492Z,16.57
2022-12-18T04:59:11.227Z,18.50
2022-12-18T05:01:38.000Z,15.77
2022-12-18T05:04:05.133Z,13.67
2022-12-18T05:06:31.905Z,21.63
2022-12-18T05:08:59.211Z,16.20
2022-12-18T05:11:25.981Z,17.03
2022-12-18T05:13:52.731Z,14.10
2022-12-18T05:16:19.463Z,16.67
2022-12-18T05:18:46.282Z,19.80
2022-12-18T05:21:12.992Z,18.53
2022-12-18T05:23:40.031Z,16.27
2022-12-18T05:26:08.913Z,16.03
2022-12-18T05:28:37.092Z,14.20
2022-12-18T05:31:05.882Z,12.90
2022-12-18T05:33:34.871Z,21.50
2022-12-18T05:36:03.151Z,15.20
2022-12-18T05:38:31.153Z,19.07
2022-12-18T05:40:58.299Z,13.43
2022-12-18T05:43:26.601Z,15.63
2022-12-18T05:45:54.436Z,17.57
2022-12-18T05:48:22.529Z,18.57
2022-12-18T05:50:50.442Z,13.23
2022-12-18T05:53:20.472Z,19.30
2022-12-18T05:55:47.917Z,17.53
2022-12-18T05:58:15.480Z,16.00
2022-12-18T06:00:46.854Z,13.27
2022-12-18T06:03:14.736Z,12.03
2022-12-18T06:05:45.031Z,9.53
2022-12-18T06:08:12.724Z,13.50
2022-12-18T06:10:39.776Z,13.77
2022-12-18T06:13:07.255Z,17.33
2022-12-18T06:15:34.254Z,10.77
2022-12-18T06:18:03.148Z,10.93
2022-12-18T06:20:33.598Z,16.60
2022-12-18T06:23:00.988Z,12.40
2022-12-18T06:25:27.787Z,14.87
2022-12-18T06:27:54.509Z,11.70
2022-12-18T06:30:21.677Z,16.30
2022-12-18T06:32:53.130Z,13.90
2022-12-18T06:35:21.570Z,15.23
2022-12-18T06:37:49.028Z,16.77
2022-12-18T06:40:15.753Z,13.50
2022-12-18T06:42:42.397Z,9.77
2022-12-18T06:45:09.640Z,8.37
2022-12-18T06:47:36.255Z,5.43
2022-12-18T06:50:03.250Z,10.33
2022-12-18T06:52:29.980Z,6.87
2022-12-18T06:54:56.888Z,6.73
2022-12-18T06:57:23.550Z,8.83
2022-12-18T06:59:50.496Z,7.20
2022-12-18T07:02:17.745Z,7.10
2022-12-18T07:04:44.458Z,7.57
2022-12-18T07:07:11.091Z,8.70
2022-12-18T07:09:38.057Z,6.67
2022-12-18T07:12:05.986Z,9.30
2022-12-18T07:14:35.045Z,7.70
2022-12-18T07:17:02.683Z,6.47
2022-12-18T07:19:30.742Z,7.97
2022-12-18T07:21:57.935Z,8.27
2022-12-18T07:24:24.706Z,4.17
2022-12-18T07:26:51.392Z,7.77
2022-12-18T07:29:18.138Z,12.43
2022-12-18T07:31:45.460Z,8.33
2022-12-18T07:34:13.948Z,7.33
2022-12-18T07:36:40.689Z,8.30
2022-12-18T07:39:07.403Z,8.00
2022-12-18T07:41:34.201Z,9.03
2022-12-18T07:44:00.874Z,7.93
2022-12-18T07:46:27.628Z,9.67
2022-12-18T07:48:56.711Z,12.33
2022-12-18T07:51:23.424Z,7.57
2022-12-18T07:53:52.528Z,10.57
2022-12-18T07:56:29.136Z,10.13
2022-12-18T07:58:57.958Z,9.67
2022-12-18T08:01:24.848Z,12.60
2022-12-18T08:03:52.290Z,8.43
2022-12-18T08:06:19.552Z,14.43
2022-12-18T08:08:49.519Z,13.17
2022-12-18T08:11:16.855Z,10.60
2022-12-18T08:13:43.812Z,11.93
2022-12-18T08:16:10.824Z,10.73
2022-12-18T08:18:38.771Z,15.43
2022-12-18T08:21:16.816Z,14.30
2022-12-18T08:23:44.108Z,12.17
2022-12-18T08:26:12.214Z,9.30
2022-12-18T08:28:39.608Z,14.90
2022-12-18T08:31:06.377Z,14.20
2022-12-18T08:33:33.805Z,12.90
2022-12-18T08:36:03.102Z,12.60
2022-12-18T08:38:29.842Z,12.33
2022-12-18T08:41:04.786Z,15.40
2022-12-18T08:43:50.204Z,19.00
2022-12-18T08:46:17.973Z,10.13
2022-12-18T08:48:44.832Z,11.83
2022-12-18T08:51:11.898Z,11.63
2022-12-18T08:53:39.420Z,19.37
2022-12-18T08:56:06.832Z,13.13
2022-12-18T08:58:33.477Z,14.37
2022-12-18T09:01:05.129Z,19.73
2022-12-18T09:03:32.118Z,19.87
2022-12-18T09:05:58.794Z,20.97
2022-12-18T09:08:25.802Z,18.83
2022-12-18T09:10:52.784Z,14.47
2022-12-18T09:13:20.236Z,16.13
2022-12-18T09:15:54.539Z,17.13
2022-12-18T09:18:23.363Z,16.10
2022-12-18T09:20:52.841Z,16.47
2022-12-18T09:23:19.723Z,16.20
2022-12-18T09:25:46.326Z,17.93
2022-12-18T09:28:15.722Z,19.37
2022-12-18T09:30:44.912Z,10.90
2022-12-18T09:33:12.046Z,13.90
2022-12-18T09:35:40.050Z,13.40
2022-12-18T09:38:07.678Z,11.47
2022-12-18T09:40:41.017Z,12.57
2022-12-18T09:43:13.568Z,15.37
2022-12-18T09:45:45.713Z,12.10
2022-12-18T09:48:21.977Z,8.80
2022-12-18T09:50:51.247Z,16.23
2022-12-18T09:53:22.672Z,17.67
2022-12-18T09:55:49.940Z,10.20
2022-12-18T09:58:43.478Z,10.13
2022-12-18T10:01:23.803Z,9.30
2022-12-18T10:03:51.720Z,16.30
2022-12-18T10:06:46.953Z,11.50
2022-12-18T10:09:38.437Z,10.57
2022-12-18T10:12:22.349Z,10.50
2022-12-18T10:14:57.125Z,11.40
2022-12-18T10:18:17.413Z,11.10
2022-12-18T10:20:51.395Z,13.07
2022-12-18T10:23:29.879Z,12.90
2022-12-18T10:26:08.105Z,10.37
2022-12-18T10:28:38.934Z,12.10
2022-12-18T10:31:21.098Z,15.20
2022-12-18T10:33:51.393Z,13.67
2022-12-18T10:36:18.008Z,9.93
2022-12-18T10:38:44.936Z,15.83
2022-12-18T10:41:23.109Z,22.70
2022-12-18T10:44:11.321Z,17.83
2022-12-18T10:46:38.363Z,13.67
2022-12-18T10:49:05.909Z,12.90
2022-12-18T10:51:38.688Z,8.83
2022-12-18T10:54:17.817Z,12.10
2022-12-18T10:56:45.416Z,15.80
2022-12-18T11:00:12.775Z,15.07
2022-12-18T11:07:34.558Z,14.07
2022-12-18T11:10:02.688Z,12.07
2022-12-18T11:12:30.175Z,15.53
2022-12-18T11:14:57.683Z,11.13
2022-12-18T11:17:33.306Z,11.83
2022-12-18T11:20:10.390Z,11.40
2022-12-18T11:22:39.266Z,14.93
2022-12-18T11:25:35.897Z,14.27
2022-12-18T11:28:26.972Z,16.30
2022-12-18T11:31:29.381Z,14.10
2022-12-18T11:34:28.718Z,11.30
2022-12-18T11:36:58.853Z,12.20
2022-12-18T11:39:43.744Z,9.80
2022-12-18T11:42:42.573Z,15.03
2022-12-18T11:45:12.131Z,14.03
2022-12-18T11:47:45.589Z,12.17
2022-12-18T11:50:26.550Z,11.77
2022-12-18T11:52:58.198Z,15.50
2022-12-18T11:55:42.983Z,15.20
2022-12-18T11:58:31.141Z,12.80
2022-12-18T12:01:19.414Z,10.40
2022-12-18T12:04:13.542Z,17.40
2022-12-18T12:06:49.949Z,14.27
2022-12-18T12:09:35.793Z,8.77
2022-12-18T12:12:48.680Z,10.90
2022-12-18T12:15:28.211Z,10.90
2022-12-18T12:18:26.242Z,12.97
2022-12-18T12:21:34.138Z,8.40
2022-12-18T12:24:12.626Z,8.23
2022-12-18T12:27:13.698Z,7.87
2022-12-18T12:29:48.697Z,8.97
2022-12-18T12:32:33.555Z,7.23
2022-12-18T12:35:34.125Z,10.33
2022-12-18T12:38:34.861Z,8.13
2022-12-18T12:41:34.006Z,11.33
2022-12-18T12:44:06.455Z,8.13
2022-12-18T12:49:11.033Z,4.63
2022-12-18T12:51:41.981Z,4.93
2022-12-18T12:54:25.914Z,12.07
2022-12-18T12:57:01.724Z,6.70
2022-12-18T12:59:36.564Z,7.77
2022-12-18T13:02:34.281Z,10.77
2022-12-18T13:05:16.059Z,6.13
2022-12-18T13:07:52.813Z,7.38
2022-12-18T13:10:25.625Z,8.17
2022-12-18T13:12:59.498Z,6.40
2022-12-18T13:15:35.872Z,6.22
2022-12-18T13:18:11.226Z,5.20
2022-12-18T13:20:52.420Z,9.27
2022-12-18T13:23:25.029Z,3.63
2022-12-18T13:25:52.311Z,6.17
2022-12-18T13:28:34.878Z,14.23
2022-12-18T13:31:02.963Z,7.13
2022-12-18T13:33:29.793Z,12.57
2022-12-18T13:36:10.420Z,9.23
2022-12-18T13:38:38.933Z,13.23
2022-12-18T13:41:23.957Z,6.60
2022-12-18T13:43:52.530Z,8.80
2022-12-18T13:46:38.341Z,6.53
2022-12-18T13:49:14.285Z,8.63
2022-12-18T13:51:45.241Z,11.87
2022-12-18T13:54:25.278Z,7.00
2022-12-18T13:56:52.303Z,6.53
2022-12-18T13:59:27.368Z,12.23
2022-12-18T14:02:02.782Z,24.30
2022-12-18T14:04:36.617Z,9.83
2022-12-18T14:07:07.332Z,3.67
2022-12-18T14:09:47.293Z,7.00
2022-12-18T14:12:43.566Z,8.17
2022-12-18T14:15:26.894Z,12.03
2022-12-18T14:17:58.283Z,8.60
2022-12-18T14:20:33.772Z,3.17
2022-12-18T14:23:04.243Z,7.93
2022-12-18T14:25:32.085Z,8.33
2022-12-18T14:28:11.192Z,11.83
2022-12-18T14:30:46.951Z,10.63
2022-12-18T14:33:25.871Z,7.57
2022-12-18T14:36:01.712Z,4.73
2022-12-18T14:38:35.797Z,8.73
2022-12-18T14:41:05.434Z,12.93
2022-12-18T14:43:37.660Z,8.97
2022-12-18T14:46:07.234Z,13.13
2022-12-18T14:48:42.704Z,6.60
2022-12-18T14:51:19.615Z,8.43
2022-12-18T14:53:55.828Z,12.67
2022-12-18T14:56:31.489Z,4.83
2022-12-18T14:59:01.256Z,9.17
2022-12-18T15:01:54.177Z,9.33
2022-12-18T15:04:33.262Z,9.65
2022-12-18T15:07:12.332Z,9.97
2022-12-18T15:09:41.810Z,5.53
2022-12-18T15:12:34.072Z,6.83
2022-12-18T15:15:01.156Z,4.77
2022-12-18T15:17:28.190Z,9.10
2022-12-18T15:20:03.005Z,54.53
2022-12-18T15:22:38.938Z,19.00
2022-12-18T15:25:33.214Z,17.57
2022-12-18T15:27:59.882Z,18.20
2022-12-18T15:30:27.134Z,26.73
2022-12-18T15:33:14.167Z,10.60
2022-12-18T15:35:46.633Z,10.53
2022-12-18T15:38:13.950Z,13.02
2022-12-18T15:40:40.792Z,7.60
2022-12-18T15:43:36.510Z,11.27
2022-12-18T15:46:17.808Z,14.40
2022-12-18T15:48:49.284Z,16.13
2022-12-18T15:51:25.583Z,23.17
2022-12-18T15:53:55.571Z,20.73
2022-12-18T15:56:41.342Z,19.00
2022-12-18T15:59:13.305Z,15.53
2022-12-18T16:01:42.803Z,15.87
2022-12-18T16:04:13.074Z,18.37
2022-12-18T16:07:12.561Z,20.60
2022-12-18T16:09:27.139Z,23.80
2022-12-18T16:11:54.218Z,20.60
2022-12-18T16:14:29.272Z,32.33
2022-12-18T16:17:02.647Z,23.67
2022-12-18T16:19:30.264Z,19.33
2022-12-18T16:21:58.795Z,19.43
2022-12-18T16:24:27.964Z,24.40
2022-12-18T16:26:55.675Z,38.87
2022-12-18T16:29:25.805Z,48.03
2022-12-18T16:31:53.155Z,52.00
2022-12-18T16:34:26.050Z,64.87
2022-12-18T16:37:05.179Z,65.03
2022-12-18T16:39:36.422Z,31.67
2022-12-18T16:42:17.425Z,28.63
2022-12-18T16:44:44.947Z,28.67
2022-12-18T16:47:14.367Z,28.77
2022-12-18T16:49:42.298Z,18.47
2022-12-18T16:52:09.246Z,22.30
2022-12-18T16:54:36.798Z,25.27
2022-12-18T16:57:05.456Z,19.23
2022-12-18T16:59:32.731Z,22.20
2022-12-18T17:01:59.573Z,24.43
2022-12-18T17:04:26.774Z,17.73
2022-12-18T17:06:54.029Z,13.83
2022-12-18T17:09:30.903Z,16.13
2022-12-18T17:11:57.641Z,24.03
2022-12-18T17:14:25.298Z,19.00
2022-12-18T17:17:19.619Z,28.70
2022-12-18T17:19:42.311Z,39.53
2022-12-18T17:22:09.704Z,35.00
2022-12-18T17:24:36.431Z,38.67
2022-12-18T17:27:04.468Z,32.47
2022-12-18T17:29:31.272Z,34.00
2022-12-18T17:31:58.727Z,22.50
2022-12-18T17:34:27.517Z,24.20
2022-12-18T17:36:54.256Z,36.03
2022-12-18T17:40:20.768Z,16.60
2022-12-18T17:47:39.466Z,15.83
2022-12-18T17:51:05.981Z,11.50
2022-12-18T17:58:24.906Z,7.87
2022-12-18T18:01:54.393Z,16.40
2022-12-18T18:05:20.982Z,130.37
2022-12-18T18:08:48.052Z,220.00
2022-12-18T18:12:15.230Z,67.33
2022-12-18T18:14:46.136Z,34.40
2022-12-18T18:17:16.773Z,19.67
2022-12-18T18:19:49.503Z,29.40
2022-12-18T18:24:54.553Z,10.77
2022-12-18T18:27:25.364Z,16.07
2022-12-18T18:29:54.460Z,11.80
2022-12-18T18:32:23.300Z,15.13
2022-12-18T18:34:56.120Z,12.77
2022-12-18T18:37:27.172Z,12.37
2022-12-18T18:39:56.425Z,15.27
2022-12-18T18:42:24.637Z,13.23
2022-12-18T18:44:54.729Z,6.73
2022-12-18T18:47:24.102Z,8.93
2022-12-18T18:49:52.338Z,3.80
2022-12-18T18:52:25.145Z,4.53
2022-12-18T18:55:12.052Z,5.65
2022-12-18T18:57:42.715Z,7.07
2022-12-18T19:00:14.507Z,12.43
2022-12-18T19:02:46.370Z,17.93
2022-12-18T19:05:15.460Z,18.37
2022-12-18T19:07:45.074Z,10.47
2022-12-18T19:10:12.322Z,11.53
2022-12-18T19:13:01.699Z,10.13
2022-12-18T19:15:31.678Z,10.33
2022-12-18T19:17:59.687Z,9.10
2022-12-18T19:20:31.496Z,7.23
2022-12-18T19:23:00.208Z,9.63
2022-12-18T19:25:38.511Z,8.40
2022-12-18T19:28:16.422Z,10.27
2022-12-18T19:30:50.346Z,10.27
2022-12-18T19:36:24.908Z,8.03
2022-12-18T19:38:55.167Z,9.27
2022-12-18T19:41:23.946Z,10.10
2022-12-18T19:43:55.670Z,8.53
2022-12-18T19:46:23.721Z,7.87
2022-12-18T19:48:51.304Z,14.73
2022-12-18T19:51:24.964Z,7.47
2022-12-18T19:54:01.241Z,8.47
2022-12-18T19:56:33.895Z,11.23
2022-12-18T19:59:04.170Z,9.98
2022-12-18T20:01:32.367Z,9.80
2022-12-18T20:04:03.918Z,8.67
2022-12-18T20:06:45.781Z,13.03
2022-12-18T20:09:15.173Z,11.17
2022-12-18T20:11:45.369Z,9.37
2022-12-18T20:14:14.235Z,12.57
2022-12-18T20:16:47.959Z,10.33
2022-12-18T20:19:16.151Z,9.47
2022-12-18T20:21:45.446Z,10.90
2022-12-18T20:24:14.649Z,12.93
2022-12-18T20:26:43.828Z,21.87
2022-12-18T20:29:11.085Z,29.77
2022-12-18T20:31:41.389Z,28.07
2022-12-18T20:34:09.537Z,28.47
2022-12-18T20:36:40.382Z,27.70
2022-12-18T20:39:14.425Z,32.27
2022-12-18T20:41:42.842Z,26.53
2022-12-18T20:44:21.991Z,27.77
2022-12-18T20:46:57.371Z,25.23
2022-12-18T20:49:32.203Z,25.27
2022-12-18T20:52:03.238Z,28.70
2022-12-18T20:54:34.512Z,22.53
2022-12-18T20:57:06.340Z,18.47
2022-12-18T20:59:35.199Z,22.87
2022-12-18T21:02:04.896Z,19.10
2022-12-18T21:04:35.343Z,25.13
2022-12-18T21:07:05.191Z,16.87
2022-12-18T21:09:38.420Z,18.70
2022-12-18T21:12:34.855Z,13.83
2022-12-18T21:15:11.040Z,13.20
2022-12-18T21:17:44.448Z,11.77
2022-12-18T21:20:17.370Z,9.60
2022-12-18T21:22:47.689Z,9.13
2022-12-18T21:25:20.031Z,6.60
2022-12-18T21:27:50.759Z,9.05
2022-12-18T21:30:21.827Z,16.43
2022-12-18T21:32:57.174Z,32.90
2022-12-18T21:35:26.845Z,47.30
2022-12-18T21:37:56.606Z,38.33
2022-12-18T21:40:27.808Z,54.33
2022-12-18T21:43:17.756Z,37.27
2022-12-18T21:45:48.383Z,48.63
2022-12-18T21:48:18.414Z,23.63
2022-12-18T21:50:48.345Z,16.67
2022-12-18T21:53:18.000Z,16.87
2022-12-18T21:55:47.842Z,18.60
2022-12-18T21:58:15.574Z,13.43
2022-12-18T22:00:48.884Z,8.60
2022-12-18T22:03:20.691Z,8.57
2022-12-18T22:05:53.328Z,8.43
2022-12-18T22:08:34.695Z,11.10
2022-12-18T22:11:03.709Z,5.70
2022-12-18T22:13:32.620Z,5.53
2022-12-18T22:16:01.889Z,3.67
2022-12-18T22:18:30.441Z,4.97
2022-12-18T22:21:07.017Z,8.53
2022-12-18T22:23:36.520Z,5.23
2022-12-18T22:26:04.832Z,4.80
2022-12-18T22:29:30.105Z,3.50
2022-12-18T22:32:17.087Z,4.10
2022-12-18T22:35:03.089Z,5.63
2022-12-18T22:37:32.970Z,5.43
2022-12-18T22:39:59.998Z,6.83
2022-12-18T22:42:30.384Z,5.40
2022-12-18T22:44:57.033Z,5.57
2022-12-18T22:47:27.997Z,4.87
2022-12-18T22:52:23.442Z,10.17
2022-12-18T22:54:53.531Z,4.80
2022-12-18T22:57:21.834Z,3.17
2022-12-18T22:59:49.379Z,6.27
2022-12-18T23:02:18.125Z,8.27
2022-12-18T23:04:45.153Z,7.43
2022-12-18T23:07:12.031Z,7.40
2022-12-18T23:09:39.821Z,6.93
2022-12-18T23:12:07.338Z,6.73
2022-12-18T23:14:34.301Z,6.83
2022-12-18T23:17:01.054Z,9.13
2022-12-18T23:19:27.720Z,7.30
2022-12-18T23:21:57.716Z,10.90
2022-12-18T23:24:30.850Z,9.87
2022-12-18T23:26:59.287Z,7.57
2022-12-18T23:29:25.986Z,9.73
2022-12-18T23:31:52.997Z,12.03
2022-12-18T23:34:20.064Z,12.57
2022-12-18T23:36:49.158Z,11.90
2022-12-18T23:39:29.315Z,17.37
2022-12-18T23:41:59.261Z,13.23
2022-12-18T23:44:26.308Z,9.63
2022-12-18T23:46:53.191Z,11.97
2022-12-18T23:49:20.000Z,13.80
2022-12-18T23:51:47.161Z,18.87
2022-12-18T23:54:13.769Z,14.90
2022-12-18T23:56:40.409Z,8.60
2022-12-18T23:59:07.367Z,14.13
